sensor_id;sensor_type;location;lat;lon;timestamp;P1;P2;P0
46302;PMS7003;32029;51.358;5.628;2022-12-07T00:01:23;6.33;6.33;6.00
46302;PMS7003;32029;51.358;5.628;2022-12-07T00:03:57;8.20;8.20;5.60
46302;PMS7003;32029;51.358;5.628;2022-12-07T00:08:59;9.00;9.00;7.00
46302;PMS7003;32029;51.358;5.628;2022-12-07T00:11:27;10.80;7.20;5.80
46302;PMS7003;32029;51.358;5.628;2022-12-07T00:13:56;7.00;7.00;6.00
46302;PMS7003;32029;51.358;5.628;2022-12-07T00:16:26;7.67;6.33;5.00
46302;PMS7003;32029;51.358;5.628;2022-12-07T00:18:55;9.20;7.80;6.20
46302;PMS7003;32029;51.358;5.628;2022-12-07T00:21:24;5.67;5.67;5.00
46302;PMS7003;32029;51.358;5.628;2022-12-07T00:23:53;7.00;7.00;6.33
46302;PMS7003;32029;51.358;5.628;2022-12-07T00:26:28;7.67;6.33;6.00
46302;PMS7003;32029;51.358;5.628;2022-12-07T00:28:59;7.00;7.00;6.00
46302;PMS7003;32029;51.358;5.628;2022-12-07T00:31:28;5.33;5.33;5.00
46302;PMS7003;32029;51.358;5.628;2022-12-07T00:33:57;8.67;7.00;7.00
46302;PMS7003;32029;51.358;5.628;2022-12-07T00:36:26;10.20;6.80;6.00
46302;PMS7003;32029;51.358;5.628;2022-12-07T00:38:57;10.00;7.00;7.00
46302;PMS7003;32029;51.358;5.628;2022-12-07T00:41:26;6.67;6.67;5.00
46302;PMS7003;32029;51.358;5.628;2022-12-07T00:43:54;6.00;6.00;5.00
46302;PMS7003;32029;51.358;5.628;2022-12-07T00:46:22;5.00;3.00;3.00
46302;PMS7003;32029;51.358;5.628;2022-12-07T00:48:49;9.00;9.00;7.00
46302;PMS7003;32029;51.358;5.628;2022-12-07T00:51:17;8.33;6.33;6.00
46302;PMS7003;32029;51.358;5.628;2022-12-07T00:53:46;6.67;6.67;5.67
46302;PMS7003;32029;51.358;5.628;2022-12-07T00:56:16;6.33;6.33;5.67
46302;PMS7003;32029;51.358;5.628;2022-12-07T00:58:49;8.67;6.33;5.00
46302;PMS7003;32029;51.358;5.628;2022-12-07T01:01:29;8.00;8.00;6.00
46302;PMS7003;32029;51.358;5.628;2022-12-07T01:03:57;11.00;9.33;8.00
46302;PMS7003;32029;51.358;5.628;2022-12-07T01:06:25;5.33;5.33;4.67
46302;PMS7003;32029;51.358;5.628;2022-12-07T01:08:53;8.40;8.40;6.80
46302;PMS7003;32029;51.358;5.628;2022-12-07T01:11:22;9.67;8.33;6.00
46302;PMS7003;32029;51.358;5.628;2022-12-07T01:13:51;5.33;5.33;4.00
46302;PMS7003;32029;51.358;5.628;2022-12-07T01:16:20;8.00;8.00;6.00
46302;PMS7003;32029;51.358;5.628;2022-12-07T01:18:51;12.33;11.00;9.00
46302;PMS7003;32029;51.358;5.628;2022-12-07T01:24:30;5.33;5.33;4.33
46302;PMS7003;32029;51.358;5.628;2022-12-07T01:26:58;1.00;1.00;1.00
46302;PMS7003;32029;51.358;5.628;2022-12-07T01:29:24;8.67;8.00;6.00
46302;PMS7003;32029;51.358;5.628;2022-12-07T01:31:51;6.00;6.00;5.33
46302;PMS7003;32029;51.358;5.628;2022-12-07T01:34:18;2.33;2.00;2.00
46302;PMS7003;32029;51.358;5.628;2022-12-07T01:36:46;11.00;8.60;6.60
46302;PMS7003;32029;51.358;5.628;2022-12-07T01:39:12;6.00;6.00;5.00
46302;PMS7003;32029;51.358;5.628;2022-12-07T01:41:40;9.00;9.00;7.00
46302;PMS7003;32029;51.358;5.628;2022-12-07T01:44:17;7.67;7.67;5.00
46302;PMS7003;32029;51.358;5.628;2022-12-07T01:46:52;6.67;6.67;5.33
46302;PMS7003;32029;51.358;5.628;2022-12-07T01:52:13;9.00;7.33;5.33
46302;PMS7003;32029;51.358;5.628;2022-12-07T01:54:47;12.67;10.67;8.33
46302;PMS7003;32029;51.358;5.628;2022-12-07T01:57:15;9.00;9.00;6.00
46302;PMS7003;32029;51.358;5.628;2022-12-07T01:59:43;6.00;6.00;5.00
46302;PMS7003;32029;51.358;5.628;2022-12-07T02:02:15;5.67;5.33;5.00
46302;PMS7003;32029;51.358;5.628;2022-12-07T02:04:56;10.33;10.33;7.33
46302;PMS7003;32029;51.358;5.628;2022-12-07T02:07:25;6.00;6.00;5.67
46302;PMS7003;32029;51.358;5.628;2022-12-07T02:09:53;4.00;2.00;2.00
46302;PMS7003;32029;51.358;5.628;2022-12-07T02:12:20;10.00;9.00;7.33
46302;PMS7003;32029;51.358;5.628;2022-12-07T02:14:50;6.00;6.00;5.67
46302;PMS7003;32029;51.358;5.628;2022-12-07T02:17:20;9.33;8.33;6.00
46302;PMS7003;32029;51.358;5.628;2022-12-07T02:20:55;10.00;7.33;6.00
46302;PMS7003;32029;51.358;5.628;2022-12-07T02:23:10;7.67;7.67;6.00
46302;PMS7003;32029;51.358;5.628;2022-12-07T02:29:03;7.33;3.67;2.33
46302;PMS7003;32029;51.358;5.628;2022-12-07T02:31:49;3.67;3.67;3.67
46302;PMS7003;32029;51.358;5.628;2022-12-07T02:34:39;9.33;6.67;5.00
46302;PMS7003;32029;51.358;5.628;2022-12-07T02:37:22;8.67;6.00;5.33
46302;PMS7003;32029;51.358;5.628;2022-12-07T02:40:18;8.33;5.67;5.67
46302;PMS7003;32029;51.358;5.628;2022-12-07T02:42:50;8.00;8.00;6.00
46302;PMS7003;32029;51.358;5.628;2022-12-07T02:45:25;9.00;9.00;6.00
46302;PMS7003;32029;51.358;5.628;2022-12-07T02:47:56;6.00;6.00;5.00
46302;PMS7003;32029;51.358;5.628;2022-12-07T02:50:25;8.67;8.67;7.33
46302;PMS7003;32029;51.358;5.628;2022-12-07T02:52:52;6.67;6.67;5.00
46302;PMS7003;32029;51.358;5.628;2022-12-07T02:55:19;9.00;6.00;6.00
46302;PMS7003;32029;51.358;5.628;2022-12-07T03:00:57;5.00;4.00;3.33
46302;PMS7003;32029;51.358;5.628;2022-12-07T03:03:55;9.00;7.00;6.00
46302;PMS7003;32029;51.358;5.628;2022-12-07T03:06:37;8.00;5.33;5.00
46302;PMS7003;32029;51.358;5.628;2022-12-07T03:09:19;5.00;5.00;4.00
46302;PMS7003;32029;51.358;5.628;2022-12-07T03:11:50;7.67;7.67;6.00
46302;PMS7003;32029;51.358;5.628;2022-12-07T03:14:29;9.67;7.67;6.00
46302;PMS7003;32029;51.358;5.628;2022-12-07T03:19:30;8.67;8.00;6.00
46302;PMS7003;32029;51.358;5.628;2022-12-07T03:22:00;4.00;4.00;3.67
46302;PMS7003;32029;51.358;5.628;2022-12-07T03:24:51;6.00;6.00;5.00
46302;PMS7003;32029;51.358;5.628;2022-12-07T03:27:32;6.00;4.67;3.67
46302;PMS7003;32029;51.358;5.628;2022-12-07T03:30:05;2.33;2.33;2.00
46302;PMS7003;32029;51.358;5.628;2022-12-07T03:32:37;6.00;6.00;6.00
46302;PMS7003;32029;51.358;5.628;2022-12-07T03:37:48;6.00;6.00;5.00
46302;PMS7003;32029;51.358;5.628;2022-12-07T03:43:00;8.20;6.00;5.00
46302;PMS7003;32029;51.358;5.628;2022-12-07T03:48:41;3.67;3.67;2.67
46302;PMS7003;32029;51.358;5.628;2022-12-07T03:54:09;4.67;4.67;3.67
46302;PMS7003;32029;51.358;5.628;2022-12-07T03:56:42;6.33;5.00;4.67
46302;PMS7003;32029;51.358;5.628;2022-12-07T03:59:11;3.67;3.67;2.67
46302;PMS7003;32029;51.358;5.628;2022-12-07T04:01:44;4.67;4.00;2.00
46302;PMS7003;32029;51.358;5.628;2022-12-07T04:04:18;2.00;2.00;2.00
46302;PMS7003;32029;51.358;5.628;2022-12-07T04:06:45;2.00;2.00;2.00
46302;PMS7003;32029;51.358;5.628;2022-12-07T04:09:11;4.00;4.00;2.00
46302;PMS7003;32029;51.358;5.628;2022-12-07T04:11:40;4.00;4.00;3.67
46302;PMS7003;32029;51.358;5.628;2022-12-07T04:14:08;3.33;3.33;2.00
46302;PMS7003;32029;51.358;5.628;2022-12-07T04:16:51;4.33;4.00;4.00
46302;PMS7003;32029;51.358;5.628;2022-12-07T04:19:20;4.67;4.67;3.67
46302;PMS7003;32029;51.358;5.628;2022-12-07T04:21:49;2.67;2.67;2.00
46302;PMS7003;32029;51.358;5.628;2022-12-07T04:24:16;5.00;2.33;2.00
46302;PMS7003;32029;51.358;5.628;2022-12-07T04:26:43;4.67;4.67;3.67
46302;PMS7003;32029;51.358;5.628;2022-12-07T04:29:10;2.00;2.00;2.00
46302;PMS7003;32029;51.358;5.628;2022-12-07T04:31:38;5.33;3.67;3.67
46302;PMS7003;32029;51.358;5.628;2022-12-07T04:34:15;2.00;2.00;1.67
46302;PMS7003;32029;51.358;5.628;2022-12-07T04:36:43;2.00;2.00;2.00
46302;PMS7003;32029;51.358;5.628;2022-12-07T04:39:21;2.33;1.00;1.00
46302;PMS7003;32029;51.358;5.628;2022-12-07T04:41:50;3.67;3.67;2.00
46302;PMS7003;32029;51.358;5.628;2022-12-07T04:44:17;2.00;2.00;2.00
46302;PMS7003;32029;51.358;5.628;2022-12-07T04:46:45;2.00;2.00;2.00
46302;PMS7003;32029;51.358;5.628;2022-12-07T04:49:12;2.00;2.00;2.00
46302;PMS7003;32029;51.358;5.628;2022-12-07T04:51:40;1.00;1.00;1.00
46302;PMS7003;32029;51.358;5.628;2022-12-07T04:54:08;5.67;5.67;4.33
46302;PMS7003;32029;51.358;5.628;2022-12-07T04:56:34;1.33;1.33;1.00
46302;PMS7003;32029;51.358;5.628;2022-12-07T04:59:02;1.33;1.33;0.67
46302;PMS7003;32029;51.358;5.628;2022-12-07T05:01:30;2.00;2.00;2.00
46302;PMS7003;32029;51.358;5.628;2022-12-07T05:03:58;2.00;2.00;2.00
46302;PMS7003;32029;51.358;5.628;2022-12-07T05:06:24;1.33;1.33;1.33
46302;PMS7003;32029;51.358;5.628;2022-12-07T05:08:51;3.00;2.00;1.33
46302;PMS7003;32029;51.358;5.628;2022-12-07T05:11:18;2.00;2.00;1.00
46302;PMS7003;32029;51.358;5.628;2022-12-07T05:14:04;1.33;1.33;1.33
46302;PMS7003;32029;51.358;5.628;2022-12-07T05:16:36;2.67;2.67;2.67
46302;PMS7003;32029;51.358;5.628;2022-12-07T05:19:03;1.00;1.00;0.00
46302;PMS7003;32029;51.358;5.628;2022-12-07T05:21:31;2.00;2.00;1.67
46302;PMS7003;32029;51.358;5.628;2022-12-07T05:23:58;2.00;2.00;1.67
46302;PMS7003;32029;51.358;5.628;2022-12-07T05:26:25;1.33;1.33;1.33
46302;PMS7003;32029;51.358;5.628;2022-12-07T05:28:52;5.00;3.00;2.00
46302;PMS7003;32029;51.358;5.628;2022-12-07T05:31:20;2.00;1.00;1.00
46302;PMS7003;32029;51.358;5.628;2022-12-07T05:33:47;3.67;3.67;2.00
46302;PMS7003;32029;51.358;5.628;2022-12-07T05:36:14;2.67;2.67;2.67
46302;PMS7003;32029;51.358;5.628;2022-12-07T05:38:41;1.67;1.67;1.00
46302;PMS7003;32029;51.358;5.628;2022-12-07T05:41:08;3.33;3.33;2.33
46302;PMS7003;32029;51.358;5.628;2022-12-07T05:43:57;2.00;2.00;1.67
46302;PMS7003;32029;51.358;5.628;2022-12-07T05:46:24;1.67;1.67;1.67
46302;PMS7003;32029;51.358;5.628;2022-12-07T05:48:51;0.00;0.00;0.00
46302;PMS7003;32029;51.358;5.628;2022-12-07T05:51:18;3.00;3.00;2.00
46302;PMS7003;32029;51.358;5.628;2022-12-07T05:53:45;5.33;5.33;3.00
46302;PMS7003;32029;51.358;5.628;2022-12-07T05:56:12;3.67;3.67;2.00
46302;PMS7003;32029;51.358;5.628;2022-12-07T05:58:38;2.33;2.33;2.00
46302;PMS7003;32029;51.358;5.628;2022-12-07T06:01:24;3.00;3.00;2.33
46302;PMS7003;32029;51.358;5.628;2022-12-07T06:03:51;2.33;2.33;2.00
46302;PMS7003;32029;51.358;5.628;2022-12-07T06:06:18;3.00;3.00;3.00
46302;PMS7003;32029;51.358;5.628;2022-12-07T06:08:44;2.67;2.67;2.33
46302;PMS7003;32029;51.358;5.628;2022-12-07T06:11:11;2.00;2.00;2.00
46302;PMS7003;32029;51.358;5.628;2022-12-07T06:13:56;4.33;1.33;0.67
46302;PMS7003;32029;51.358;5.628;2022-12-07T06:16:23;2.67;2.67;2.00
46302;PMS7003;32029;51.358;5.628;2022-12-07T06:18:50;2.67;2.67;2.67
46302;PMS7003;32029;51.358;5.628;2022-12-07T06:21:16;2.00;2.00;2.00
46302;PMS7003;32029;51.358;5.628;2022-12-07T06:23:43;3.00;2.00;1.00
46302;PMS7003;32029;51.358;5.628;2022-12-07T06:26:10;2.67;2.67;2.00
46302;PMS7003;32029;51.358;5.628;2022-12-07T06:28:36;2.33;2.33;2.00
46302;PMS7003;32029;51.358;5.628;2022-12-07T06:31:03;2.00;2.00;2.00
46302;PMS7003;32029;51.358;5.628;2022-12-07T06:33:30;1.67;1.67;1.67
46302;PMS7003;32029;51.358;5.628;2022-12-07T06:35:57;1.33;1.33;1.33
46302;PMS7003;32029;51.358;5.628;2022-12-07T06:38:23;2.00;2.00;2.00
46302;PMS7003;32029;51.358;5.628;2022-12-07T06:40:51;1.67;1.67;1.00
46302;PMS7003;32029;51.358;5.628;2022-12-07T06:43:17;1.00;1.00;1.00
46302;PMS7003;32029;51.358;5.628;2022-12-07T06:45:44;2.00;2.00;2.00
46302;PMS7003;32029;51.358;5.628;2022-12-07T06:48:11;1.00;1.00;1.00
46302;PMS7003;32029;51.358;5.628;2022-12-07T06:50:39;2.00;2.00;1.33
46302;PMS7003;32029;51.358;5.628;2022-12-07T06:53:05;2.67;2.00;2.00
46302;PMS7003;32029;51.358;5.628;2022-12-07T06:55:32;1.33;1.33;1.33
46302;PMS7003;32029;51.358;5.628;2022-12-07T06:57:59;2.00;2.00;1.67
46302;PMS7003;32029;51.358;5.628;2022-12-07T07:00:25;4.33;2.00;2.00
46302;PMS7003;32029;51.358;5.628;2022-12-07T07:02:52;2.67;2.00;2.00
46302;PMS7003;32029;51.358;5.628;2022-12-07T07:05:19;2.00;2.00;1.67
46302;PMS7003;32029;51.358;5.628;2022-12-07T07:07:51;2.00;2.00;2.00
46302;PMS7003;32029;51.358;5.628;2022-12-07T07:10:17;2.00;2.00;1.67
46302;PMS7003;32029;51.358;5.628;2022-12-07T07:12:44;5.00;1.00;1.00
46302;PMS7003;32029;51.358;5.628;2022-12-07T07:15:11;2.00;2.00;2.00
46302;PMS7003;32029;51.358;5.628;2022-12-07T07:17:38;2.00;2.00;1.67
46302;PMS7003;32029;51.358;5.628;2022-12-07T07:20:05;2.67;2.00;1.67
46302;PMS7003;32029;51.358;5.628;2022-12-07T07:22:32;4.67;2.00;2.00
46302;PMS7003;32029;51.358;5.628;2022-12-07T07:24:58;4.33;4.33;4.00
46302;PMS7003;32029;51.358;5.628;2022-12-07T07:27:25;3.67;3.67;2.00
46302;PMS7003;32029;51.358;5.628;2022-12-07T07:29:52;1.00;1.00;0.67
46302;PMS7003;32029;51.358;5.628;2022-12-07T07:32:19;5.00;3.67;2.33
46302;PMS7003;32029;51.358;5.628;2022-12-07T07:34:47;4.00;4.00;3.33
46302;PMS7003;32029;51.358;5.628;2022-12-07T07:37:14;1.67;1.67;1.33
46302;PMS7003;32029;51.358;5.628;2022-12-07T07:39:41;4.33;4.33;3.67
46302;PMS7003;32029;51.358;5.628;2022-12-07T07:42:07;6.00;6.00;5.33
46302;PMS7003;32029;51.358;5.628;2022-12-07T07:44:34;4.00;4.00;4.00
46302;PMS7003;32029;51.358;5.628;2022-12-07T07:47:01;6.00;6.00;4.67
46302;PMS7003;32029;51.358;5.628;2022-12-07T07:49:28;4.00;4.00;2.00
46302;PMS7003;32029;51.358;5.628;2022-12-07T07:51:55;5.00;5.00;5.00
46302;PMS7003;32029;51.358;5.628;2022-12-07T07:54:21;5.00;4.00;4.00
46302;PMS7003;32029;51.358;5.628;2022-12-07T07:56:48;5.00;5.00;4.67
46302;PMS7003;32029;51.358;5.628;2022-12-07T07:59:15;5.00;5.00;4.67
46302;PMS7003;32029;51.358;5.628;2022-12-07T08:01:42;4.67;4.67;3.33
46302;PMS7003;32029;51.358;5.628;2022-12-07T08:04:08;4.00;4.00;4.00
46302;PMS7003;32029;51.358;5.628;2022-12-07T08:06:35;2.00;2.00;2.00
46302;PMS7003;32029;51.358;5.628;2022-12-07T08:09:02;4.33;4.33;4.00
46302;PMS7003;32029;51.358;5.628;2022-12-07T08:11:29;4.00;4.00;2.33
46302;PMS7003;32029;51.358;5.628;2022-12-07T08:13:56;5.67;5.67;5.00
46302;PMS7003;32029;51.358;5.628;2022-12-07T08:16:23;9.00;5.33;4.00
46302;PMS7003;32029;51.358;5.628;2022-12-07T08:18:49;5.00;5.00;3.67
46302;PMS7003;32029;51.358;5.628;2022-12-07T08:21:16;5.67;5.67;5.00
46302;PMS7003;32029;51.358;5.628;2022-12-07T08:23:43;4.33;4.33;3.00
46302;PMS7003;32029;51.358;5.628;2022-12-07T08:26:10;5.00;5.00;4.33
46302;PMS7003;32029;51.358;5.628;2022-12-07T08:28:39;6.67;5.00;3.67
46302;PMS7003;32029;51.358;5.628;2022-12-07T08:31:07;5.33;5.33;3.67
46302;PMS7003;32029;51.358;5.628;2022-12-07T08:33:36;9.00;7.00;5.67
46302;PMS7003;32029;51.358;5.628;2022-12-07T08:36:05;7.33;7.33;5.00
46302;PMS7003;32029;51.358;5.628;2022-12-07T08:38:34;5.33;5.00;3.00
46302;PMS7003;32029;51.358;5.628;2022-12-07T08:41:01;5.00;5.00;3.67
46302;PMS7003;32029;51.358;5.628;2022-12-07T08:43:28;6.00;6.00;5.00
46302;PMS7003;32029;51.358;5.628;2022-12-07T08:46:41;6.00;6.00;5.00
46302;PMS7003;32029;51.358;5.628;2022-12-07T08:48:52;5.67;5.67;5.00
46302;PMS7003;32029;51.358;5.628;2022-12-07T08:51:23;3.67;3.67;3.67
46302;PMS7003;32029;51.358;5.628;2022-12-07T08:53:51;5.00;5.00;3.67
46302;PMS7003;32029;51.358;5.628;2022-12-07T08:56:19;3.33;3.33;2.00
46302;PMS7003;32029;51.358;5.628;2022-12-07T08:58:46;5.67;5.67;4.67
46302;PMS7003;32029;51.358;5.628;2022-12-07T09:01:13;5.00;3.00;2.00
46302;PMS7003;32029;51.358;5.628;2022-12-07T09:03:40;7.67;7.67;5.00
46302;PMS7003;32029;51.358;5.628;2022-12-07T09:06:07;9.00;7.67;6.00
46302;PMS7003;32029;51.358;5.628;2022-12-07T09:08:41;5.00;5.00;5.00
46302;PMS7003;32029;51.358;5.628;2022-12-07T09:11:13;5.80;5.80;5.00
46302;PMS7003;32029;51.358;5.628;2022-12-07T09:13:40;5.00;5.00;3.00
46302;PMS7003;32029;51.358;5.628;2022-12-07T09:16:06;6.67;5.00;3.00
46302;PMS7003;32029;51.358;5.628;2022-12-07T09:18:33;3.00;3.00;3.00
46302;PMS7003;32029;51.358;5.628;2022-12-07T09:21:00;6.00;6.00;5.00
46302;PMS7003;32029;51.358;5.628;2022-12-07T09:23:28;5.00;5.00;5.00
46302;PMS7003;32029;51.358;5.628;2022-12-07T09:25:54;7.00;7.00;6.00
46302;PMS7003;32029;51.358;5.628;2022-12-07T09:28:24;3.67;3.00;2.33
46302;PMS7003;32029;51.358;5.628;2022-12-07T09:30:59;7.00;7.00;5.00
46302;PMS7003;32029;51.358;5.628;2022-12-07T09:33:26;6.00;5.00;3.00
46302;PMS7003;32029;51.358;5.628;2022-12-07T09:35:52;5.67;5.67;4.33
46302;PMS7003;32029;51.358;5.628;2022-12-07T09:38:20;5.00;5.00;3.00
46302;PMS7003;32029;51.358;5.628;2022-12-07T09:40:47;6.00;6.00;5.00
46302;PMS7003;32029;51.358;5.628;2022-12-07T09:43:18;6.33;5.00;3.00
46302;PMS7003;32029;51.358;5.628;2022-12-07T09:45:48;4.33;4.33;2.67
46302;PMS7003;32029;51.358;5.628;2022-12-07T09:48:20;6.00;6.00;5.00
46302;PMS7003;32029;51.358;5.628;2022-12-07T09:50:49;8.33;3.00;3.00
46302;PMS7003;32029;51.358;5.628;2022-12-07T09:53:25;6.33;6.33;5.00
46302;PMS7003;32029;51.358;5.628;2022-12-07T09:55:56;6.00;3.67;3.00
46302;PMS7003;32029;51.358;5.628;2022-12-07T09:58:24;6.67;6.67;5.00
46302;PMS7003;32029;51.358;5.628;2022-12-07T10:00:53;5.00;5.00;5.00
46302;PMS7003;32029;51.358;5.628;2022-12-07T10:03:49;3.67;3.67;3.00
46302;PMS7003;32029;51.358;5.628;2022-12-07T10:06:19;5.00;5.00;3.00
46302;PMS7003;32029;51.358;5.628;2022-12-07T10:09:38;4.33;4.33;3.00
46302;PMS7003;32029;51.358;5.628;2022-12-07T10:14:39;3.00;3.00;2.67
46302;PMS7003;32029;51.358;5.628;2022-12-07T10:17:41;5.00;5.00;5.00
46302;PMS7003;32029;51.358;5.628;2022-12-07T10:20:48;3.00;3.00;2.33
46302;PMS7003;32029;51.358;5.628;2022-12-07T10:39:47;2.67;2.67;2.67
46302;PMS7003;32029;51.358;5.628;2022-12-07T10:42:22;6.00;4.33;3.00
46302;PMS7003;32029;51.358;5.628;2022-12-07T10:45:07;2.00;2.00;2.00
46302;PMS7003;32029;51.358;5.628;2022-12-07T10:51:12;2.67;2.67;2.00
46302;PMS7003;32029;51.358;5.628;2022-12-07T11:11:02;3.67;2.67;2.00
46302;PMS7003;32029;51.358;5.628;2022-12-07T11:13:39;2.67;2.00;1.33
46302;PMS7003;32029;51.358;5.628;2022-12-07T11:19:04;2.00;2.00;2.00
46302;PMS7003;32029;51.358;5.628;2022-12-07T11:38:25;5.00;2.67;2.33
46302;PMS7003;32029;51.358;5.628;2022-12-07T11:41:02;1.67;1.67;1.00
46302;PMS7003;32029;51.358;5.628;2022-12-07T11:44:04;2.00;2.00;1.67
46302;PMS7003;32029;51.358;5.628;2022-12-07T11:47:12;2.00;2.00;2.00
46302;PMS7003;32029;51.358;5.628;2022-12-07T11:49:43;3.00;3.00;2.00
46302;PMS7003;32029;51.358;5.628;2022-12-07T11:52:30;1.00;1.00;1.00
46302;PMS7003;32029;51.358;5.628;2022-12-07T11:55:16;1.00;1.00;1.00
46302;PMS7003;32029;51.358;5.628;2022-12-07T11:57:49;1.00;1.00;1.00
46302;PMS7003;32029;51.358;5.628;2022-12-07T12:00:22;1.00;1.00;1.00
46302;PMS7003;32029;51.358;5.628;2022-12-07T12:05:37;3.00;1.00;1.00
46302;PMS7003;32029;51.358;5.628;2022-12-07T12:25:20;1.00;1.00;0.00
46302;PMS7003;32029;51.358;5.628;2022-12-07T12:27:52;2.00;1.00;1.00
46302;PMS7003;32029;51.358;5.628;2022-12-07T12:30:33;1.00;1.00;1.00
46302;PMS7003;32029;51.358;5.628;2022-12-07T12:51:43;0.00;0.00;0.00
46302;PMS7003;32029;51.358;5.628;2022-12-07T12:54:20;0.33;0.33;0.00
46302;PMS7003;32029;51.358;5.628;2022-12-07T12:57:04;1.00;1.00;1.00
46302;PMS7003;32029;51.358;5.628;2022-12-07T13:02:26;0.00;0.00;0.00
46302;PMS7003;32029;51.358;5.628;2022-12-07T13:05:01;0.33;0.33;0.00
46302;PMS7003;32029;51.358;5.628;2022-12-07T13:15:32;1.00;1.00;0.67
46302;PMS7003;32029;51.358;5.628;2022-12-07T13:17:59;0.00;0.00;0.00
46302;PMS7003;32029;51.358;5.628;2022-12-07T13:23:14;0.00;0.00;0.00
46302;PMS7003;32029;51.358;5.628;2022-12-07T13:25:48;0.00;0.00;0.00
46302;PMS7003;32029;51.358;5.628;2022-12-07T13:28:20;0.00;0.00;0.00
46302;PMS7003;32029;51.358;5.628;2022-12-07T13:30:57;0.00;0.00;0.00
46302;PMS7003;32029;51.358;5.628;2022-12-07T13:33:30;0.00;0.00;0.00
46302;PMS7003;32029;51.358;5.628;2022-12-07T13:36:00;1.00;1.00;0.00
46302;PMS7003;32029;51.358;5.628;2022-12-07T13:38:28;0.00;0.00;0.00
46302;PMS7003;32029;51.358;5.628;2022-12-07T13:41:04;0.00;0.00;0.00
46302;PMS7003;32029;51.358;5.628;2022-12-07T13:46:14;1.00;1.00;1.00
46302;PMS7003;32029;51.358;5.628;2022-12-07T13:48:44;0.00;0.00;0.00
46302;PMS7003;32029;51.358;5.628;2022-12-07T13:51:34;0.00;0.00;0.00
46302;PMS7003;32029;51.358;5.628;2022-12-07T13:54:08;2.00;1.00;0.00
46302;PMS7003;32029;51.358;5.628;2022-12-07T13:56:37;1.00;1.00;1.00
46302;PMS7003;32029;51.358;5.628;2022-12-07T13:59:21;1.00;1.00;1.00
46302;PMS7003;32029;51.358;5.628;2022-12-07T14:01:50;0.00;0.00;0.00
46302;PMS7003;32029;51.358;5.628;2022-12-07T14:04:28;0.33;0.33;0.00
46302;PMS7003;32029;51.358;5.628;2022-12-07T14:06:55;0.67;0.67;0.67
46302;PMS7003;32029;51.358;5.628;2022-12-07T14:09:24;0.00;0.00;0.00
46302;PMS7003;32029;51.358;5.628;2022-12-07T14:12:05;0.33;0.33;0.00
46302;PMS7003;32029;51.358;5.628;2022-12-07T14:15:37;0.67;0.67;0.67
46302;PMS7003;32029;51.358;5.628;2022-12-07T14:18:04;0.00;0.00;0.00
46302;PMS7003;32029;51.358;5.628;2022-12-07T14:20:38;0.33;0.33;0.00
46302;PMS7003;32029;51.358;5.628;2022-12-07T14:26:42;2.00;1.00;1.00
46302;PMS7003;32029;51.358;5.628;2022-12-07T14:31:57;0.67;0.67;0.00
46302;PMS7003;32029;51.358;5.628;2022-12-07T14:34:38;0.00;0.00;0.00
46302;PMS7003;32029;51.358;5.628;2022-12-07T14:37:07;0.67;0.00;0.00
46302;PMS7003;32029;51.358;5.628;2022-12-07T14:39:35;1.00;1.00;1.00
46302;PMS7003;32029;51.358;5.628;2022-12-07T14:42:02;0.33;0.33;0.00
46302;PMS7003;32029;51.358;5.628;2022-12-07T14:44:29;1.00;1.00;1.00
46302;PMS7003;32029;51.358;5.628;2022-12-07T14:46:55;0.33;0.33;0.33
46302;PMS7003;32029;51.358;5.628;2022-12-07T14:49:22;0.00;0.00;0.00
46302;PMS7003;32029;51.358;5.628;2022-12-07T14:51:49;0.00;0.00;0.00
46302;PMS7003;32029;51.358;5.628;2022-12-07T14:54:17;1.33;0.67;0.67
46302;PMS7003;32029;51.358;5.628;2022-12-07T14:56:46;0.00;0.00;0.00
46302;PMS7003;32029;51.358;5.628;2022-12-07T14:59:16;1.00;1.00;0.67
46302;PMS7003;32029;51.358;5.628;2022-12-07T15:01:43;1.00;1.00;1.00
46302;PMS7003;32029;51.358;5.628;2022-12-07T15:04:10;1.33;1.33;1.33
46302;PMS7003;32029;51.358;5.628;2022-12-07T15:06:37;1.00;1.00;1.00
46302;PMS7003;32029;51.358;5.628;2022-12-07T15:09:04;0.67;0.67;0.00
46302;PMS7003;32029;51.358;5.628;2022-12-07T15:11:31;1.00;1.00;0.67
46302;PMS7003;32029;51.358;5.628;2022-12-07T15:13:58;2.00;2.00;2.00
46302;PMS7003;32029;51.358;5.628;2022-12-07T15:16:41;1.67;1.67;1.00
46302;PMS7003;32029;51.358;5.628;2022-12-07T15:19:13;0.33;0.33;0.33
46302;PMS7003;32029;51.358;5.628;2022-12-07T15:21:41;1.00;1.00;1.00
46302;PMS7003;32029;51.358;5.628;2022-12-07T15:24:09;1.00;1.00;1.00
46302;PMS7003;32029;51.358;5.628;2022-12-07T15:26:38;1.00;1.00;1.00
46302;PMS7003;32029;51.358;5.628;2022-12-07T15:29:06;1.00;1.00;1.00
46302;PMS7003;32029;51.358;5.628;2022-12-07T15:31:34;1.00;1.00;0.67
46302;PMS7003;32029;51.358;5.628;2022-12-07T15:34:02;1.00;1.00;1.00
46302;PMS7003;32029;51.358;5.628;2022-12-07T15:36:30;0.67;0.67;0.00
46302;PMS7003;32029;51.358;5.628;2022-12-07T15:38:58;1.00;1.00;1.00
46302;PMS7003;32029;51.358;5.628;2022-12-07T15:41:25;1.67;1.67;1.67
46302;PMS7003;32029;51.358;5.628;2022-12-07T15:43:52;1.67;1.33;0.67
46302;PMS7003;32029;51.358;5.628;2022-12-07T15:46:40;1.00;1.00;1.00
46302;PMS7003;32029;51.358;5.628;2022-12-07T15:49:12;2.00;2.00;1.67
46302;PMS7003;32029;51.358;5.628;2022-12-07T15:51:41;2.00;2.00;2.00
46302;PMS7003;32029;51.358;5.628;2022-12-07T15:54:11;2.00;2.00;1.00
46302;PMS7003;32029;51.358;5.628;2022-12-07T15:56:42;2.00;1.00;1.00
46302;PMS7003;32029;51.358;5.628;2022-12-07T15:59:08;1.00;1.00;1.00
46302;PMS7003;32029;51.358;5.628;2022-12-07T16:01:35;1.00;1.00;0.00
46302;PMS7003;32029;51.358;5.628;2022-12-07T16:04:02;3.00;1.33;1.00
46302;PMS7003;32029;51.358;5.628;2022-12-07T16:06:28;0.00;0.00;0.00
46302;PMS7003;32029;51.358;5.628;2022-12-07T16:08:55;1.33;1.00;1.00
46302;PMS7003;32029;51.358;5.628;2022-12-07T16:11:22;0.00;0.00;0.00
46302;PMS7003;32029;51.358;5.628;2022-12-07T16:13:49;0.00;0.00;0.00
46302;PMS7003;32029;51.358;5.628;2022-12-07T16:16:17;0.00;0.00;0.00
46302;PMS7003;32029;51.358;5.628;2022-12-07T16:18:46;1.00;1.00;1.00
46302;PMS7003;32029;51.358;5.628;2022-12-07T16:21:13;1.00;1.00;1.00
46302;PMS7003;32029;51.358;5.628;2022-12-07T16:23:40;1.00;1.00;1.00
46302;PMS7003;32029;51.358;5.628;2022-12-07T16:26:08;1.00;1.00;1.00
46302;PMS7003;32029;51.358;5.628;2022-12-07T16:28:38;1.00;1.00;1.00
46302;PMS7003;32029;51.358;5.628;2022-12-07T16:31:06;1.00;1.00;1.00
46302;PMS7003;32029;51.358;5.628;2022-12-07T16:33:34;1.00;1.00;1.00
46302;PMS7003;32029;51.358;5.628;2022-12-07T16:36:01;0.33;0.33;0.33
46302;PMS7003;32029;51.358;5.628;2022-12-07T16:38:29;2.00;2.00;1.00
46302;PMS7003;32029;51.358;5.628;2022-12-07T16:40:56;1.33;1.00;0.67
46302;PMS7003;32029;51.358;5.628;2022-12-07T16:43:22;0.67;0.67;0.00
46302;PMS7003;32029;51.358;5.628;2022-12-07T16:45:49;0.67;0.67;0.00
46302;PMS7003;32029;51.358;5.628;2022-12-07T16:48:16;1.00;1.00;0.33
46302;PMS7003;32029;51.358;5.628;2022-12-07T16:50:43;1.00;1.00;1.00
46302;PMS7003;32029;51.358;5.628;2022-12-07T16:53:11;2.00;1.00;0.33
46302;PMS7003;32029;51.358;5.628;2022-12-07T16:55:38;1.00;1.00;1.00
46302;PMS7003;32029;51.358;5.628;2022-12-07T16:58:06;2.00;0.67;0.67
46302;PMS7003;32029;51.358;5.628;2022-12-07T17:00:33;1.67;1.67;1.00
46302;PMS7003;32029;51.358;5.628;2022-12-07T17:03:00;1.00;1.00;0.33
46302;PMS7003;32029;51.358;5.628;2022-12-07T17:05:27;2.00;2.00;2.00
46302;PMS7003;32029;51.358;5.628;2022-12-07T17:07:57;3.67;3.67;3.00
46302;PMS7003;32029;51.358;5.628;2022-12-07T17:10:24;1.67;1.67;1.67
46302;PMS7003;32029;51.358;5.628;2022-12-07T17:12:51;1.67;1.67;1.33